sensor_id;sensor_type;location;lat;lon;timestamp;temperature;humidity
57088;DHT22;42965;52.846;6.614;2022-08-26T00:01:53;21.10;99.90
57088;DHT22;42965;52.846;6.614;2022-08-26T00:04:19;21.10;99.90
57088;DHT22;42965;52.846;6.614;2022-08-26T00:06:45;21.00;99.90
57088;DHT22;42965;52.846;6.614;2022-08-26T00:09:13;21.00;99.90
57088;DHT22;42965;52.846;6.614;2022-08-26T00:11:39;20.90;99.90
57088;DHT22;42965;52.846;6.614;2022-08-26T00:14:05;20.90;99.90
57088;DHT22;42965;52.846;6.614;2022-08-26T00:16:31;20.80;99.90
57088;DHT22;42965;52.846;6.614;2022-08-26T00:18:57;20.80;99.90
57088;DHT22;42965;52.846;6.614;2022-08-26T00:21:24;20.70;99.90
57088;DHT22;42965;52.846;6.614;2022-08-26T00:23:51;20.70;99.90
57088;DHT22;42965;52.846;6.614;2022-08-26T00:26:17;20.70;99.90
57088;DHT22;42965;52.846;6.614;2022-08-26T00:28:43;20.70;99.90
57088;DHT22;42965;52.846;6.614;2022-08-26T00:31:10;20.60;99.90
57088;DHT22;42965;52.846;6.614;2022-08-26T00:33:38;20.50;99.90
57088;DHT22;42965;52.846;6.614;2022-08-26T00:36:05;20.50;99.90
57088;DHT22;42965;52.846;6.614;2022-08-26T00:38:32;20.50;99.90
57088;DHT22;42965;52.846;6.614;2022-08-26T00:40:58;20.50;99.90
57088;DHT22;42965;52.846;6.614;2022-08-26T00:43:24;20.40;99.90
57088;DHT22;42965;52.846;6.614;2022-08-26T00:45:57;20.50;99.90
57088;DHT22;42965;52.846;6.614;2022-08-26T00:48:27;20.40;99.90
57088;DHT22;42965;52.846;6.614;2022-08-26T00:51:08;20.40;99.90
57088;DHT22;42965;52.846;6.614;2022-08-26T00:53:43;20.40;99.90
57088;DHT22;42965;52.846;6.614;2022-08-26T00:56:33;20.40;99.90
57088;DHT22;42965;52.846;6.614;2022-08-26T00:59:02;20.30;99.90
57088;DHT22;42965;52.846;6.614;2022-08-26T01:01:30;20.30;99.90
57088;DHT22;42965;52.846;6.614;2022-08-26T01:03:56;20.30;99.90
57088;DHT22;42965;52.846;6.614;2022-08-26T01:06:22;20.30;99.90
57088;DHT22;42965;52.846;6.614;2022-08-26T01:08:49;20.20;99.90
57088;DHT22;42965;52.846;6.614;2022-08-26T01:11:17;20.30;99.90
57088;DHT22;42965;52.846;6.614;2022-08-26T01:13:43;20.30;99.90
57088;DHT22;42965;52.846;6.614;2022-08-26T01:16:12;20.20;99.90
57088;DHT22;42965;52.846;6.614;2022-08-26T01:18:40;20.20;99.90
57088;DHT22;42965;52.846;6.614;2022-08-26T01:21:31;20.30;99.90
57088;DHT22;42965;52.846;6.614;2022-08-26T01:24:01;20.30;99.90
57088;DHT22;42965;52.846;6.614;2022-08-26T01:26:37;20.30;99.90
57088;DHT22;42965;52.846;6.614;2022-08-26T01:29:08;20.30;99.90
57088;DHT22;42965;52.846;6.614;2022-08-26T01:31:41;20.30;99.90
57088;DHT22;42965;52.846;6.614;2022-08-26T01:36:37;20.40;99.90
57088;DHT22;42965;52.846;6.614;2022-08-26T01:39:05;20.40;99.90
57088;DHT22;42965;52.846;6.614;2022-08-26T01:41:32;20.40;99.90
57088;DHT22;42965;52.846;6.614;2022-08-26T01:43:59;20.40;99.90
57088;DHT22;42965;52.846;6.614;2022-08-26T01:46:28;20.40;99.90
57088;DHT22;42965;52.846;6.614;2022-08-26T01:48:57;20.40;99.90
57088;DHT22;42965;52.846;6.614;2022-08-26T01:51:25;20.40;99.90
57088;DHT22;42965;52.846;6.614;2022-08-26T01:53:52;20.40;99.90
57088;DHT22;42965;52.846;6.614;2022-08-26T01:56:21;20.40;99.90
57088;DHT22;42965;52.846;6.614;2022-08-26T01:58:51;20.50;99.90
57088;DHT22;42965;52.846;6.614;2022-08-26T02:01:20;20.50;99.90
57088;DHT22;42965;52.846;6.614;2022-08-26T02:06:18;20.50;99.90
57088;DHT22;42965;52.846;6.614;2022-08-26T02:08:50;20.50;99.90
57088;DHT22;42965;52.846;6.614;2022-08-26T02:11:17;20.50;99.90
57088;DHT22;42965;52.846;6.614;2022-08-26T02:13:50;20.50;99.90
57088;DHT22;42965;52.846;6.614;2022-08-26T02:16:19;20.50;99.90
57088;DHT22;42965;52.846;6.614;2022-08-26T02:18:47;20.50;99.90
57088;DHT22;42965;52.846;6.614;2022-08-26T02:21:15;20.50;99.90
57088;DHT22;42965;52.846;6.614;2022-08-26T02:23:42;20.50;99.90
57088;DHT22;42965;52.846;6.614;2022-08-26T02:28:50;20.60;99.90
57088;DHT22;42965;52.846;6.614;2022-08-26T02:31:17;20.50;99.90
57088;DHT22;42965;52.846;6.614;2022-08-26T02:33:43;20.50;99.90
57088;DHT22;42965;52.846;6.614;2022-08-26T02:36:09;20.60;99.90
57088;DHT22;42965;52.846;6.614;2022-08-26T02:38:36;20.50;99.90
57088;DHT22;42965;52.846;6.614;2022-08-26T02:41:02;20.50;99.90
57088;DHT22;42965;52.846;6.614;2022-08-26T02:43:28;20.50;99.90
57088;DHT22;42965;52.846;6.614;2022-08-26T02:45:55;20.50;99.90
57088;DHT22;42965;52.846;6.614;2022-08-26T02:48:21;20.50;99.90
57088;DHT22;42965;52.846;6.614;2022-08-26T02:50:48;20.50;99.90
57088;DHT22;42965;52.846;6.614;2022-08-26T02:53:15;20.50;99.90
57088;DHT22;42965;52.846;6.614;2022-08-26T02:55:41;20.50;99.90
57088;DHT22;42965;52.846;6.614;2022-08-26T02:58:08;20.50;99.90
57088;DHT22;42965;52.846;6.614;2022-08-26T03:00:36;20.50;99.90
57088;DHT22;42965;52.846;6.614;2022-08-26T03:03:03;20.50;99.90
57088;DHT22;42965;52.846;6.614;2022-08-26T03:05:29;20.50;99.90
57088;DHT22;42965;52.846;6.614;2022-08-26T03:07:55;20.50;99.90
57088;DHT22;42965;52.846;6.614;2022-08-26T03:10:22;20.50;99.90
57088;DHT22;42965;52.846;6.614;2022-08-26T03:12:48;20.50;99.90
57088;DHT22;42965;52.846;6.614;2022-08-26T03:15:16;20.40;99.90
57088;DHT22;42965;52.846;6.614;2022-08-26T03:17:43;20.50;99.90
57088;DHT22;42965;52.846;6.614;2022-08-26T03:20:10;20.50;99.90
57088;DHT22;42965;52.846;6.614;2022-08-26T03:22:37;20.50;99.90
57088;DHT22;42965;52.846;6.614;2022-08-26T03:25:05;20.50;99.90
57088;DHT22;42965;52.846;6.614;2022-08-26T03:27:31;20.50;99.90
57088;DHT22;42965;52.846;6.614;2022-08-26T03:29:58;20.50;99.90
57088;DHT22;42965;52.846;6.614;2022-08-26T03:32:43;20.50;99.90
57088;DHT22;42965;52.846;6.614;2022-08-26T03:35:11;20.50;99.90
57088;DHT22;42965;52.846;6.614;2022-08-26T03:37:38;20.50;99.90
57088;DHT22;42965;52.846;6.614;2022-08-26T03:40:06;20.50;99.90
57088;DHT22;42965;52.846;6.614;2022-08-26T03:42:37;20.50;99.90
57088;DHT22;42965;52.846;6.614;2022-08-26T03:45:07;20.50;99.90
57088;DHT22;42965;52.846;6.614;2022-08-26T03:47:34;20.60;99.90
57088;DHT22;42965;52.846;6.614;2022-08-26T03:50:00;20.50;99.90
57088;DHT22;42965;52.846;6.614;2022-08-26T03:52:27;20.50;99.90
57088;DHT22;42965;52.846;6.614;2022-08-26T03:54:54;20.50;99.90
57088;DHT22;42965;52.846;6.614;2022-08-26T03:57:21;20.50;99.90
57088;DHT22;42965;52.846;6.614;2022-08-26T03:59:47;20.50;99.90
57088;DHT22;42965;52.846;6.614;2022-08-26T04:02:16;20.50;99.90
57088;DHT22;42965;52.846;6.614;2022-08-26T04:04:43;20.50;99.90
57088;DHT22;42965;52.846;6.614;2022-08-26T04:07:09;20.50;99.90
57088;DHT22;42965;52.846;6.614;2022-08-26T04:09:35;20.50;99.90
57088;DHT22;42965;52.846;6.614;2022-08-26T04:12:01;20.50;99.90
57088;DHT22;42965;52.846;6.614;2022-08-26T04:14:28;20.50;99.90
57088;DHT22;42965;52.846;6.614;2022-08-26T04:16:56;20.50;99.90
57088;DHT22;42965;52.846;6.614;2022-08-26T04:19:23;20.50;99.90
57088;DHT22;42965;52.846;6.614;2022-08-26T04:21:50;20.50;99.90
57088;DHT22;42965;52.846;6.614;2022-08-26T04:24:19;20.50;99.90
57088;DHT22;42965;52.846;6.614;2022-08-26T04:26:47;20.50;99.90
57088;DHT22;42965;52.846;6.614;2022-08-26T04:29:16;20.50;99.90
57088;DHT22;42965;52.846;6.614;2022-08-26T04:31:46;20.50;99.90
57088;DHT22;42965;52.846;6.614;2022-08-26T04:34:15;20.60;99.90
57088;DHT22;42965;52.846;6.614;2022-08-26T04:36:42;20.60;99.90
57088;DHT22;42965;52.846;6.614;2022-08-26T04:39:09;20.60;99.90
57088;DHT22;42965;52.846;6.614;2022-08-26T04:41:37;20.60;99.90
57088;DHT22;42965;52.846;6.614;2022-08-26T04:44:04;20.60;99.90
57088;DHT22;42965;52.846;6.614;2022-08-26T04:46:31;20.60;99.90
57088;DHT22;42965;52.846;6.614;2022-08-26T04:48:58;20.60;99.90
57088;DHT22;42965;52.846;6.614;2022-08-26T04:51:24;20.50;99.90
57088;DHT22;42965;52.846;6.614;2022-08-26T04:53:57;20.60;99.90
57088;DHT22;42965;52.846;6.614;2022-08-26T04:56:30;20.60;99.90
57088;DHT22;42965;52.846;6.614;2022-08-26T04:58:57;20.60;99.90
57088;DHT22;42965;52.846;6.614;2022-08-26T05:01:23;20.60;99.90
57088;DHT22;42965;52.846;6.614;2022-08-26T05:03:50;20.60;99.90
57088;DHT22;42965;52.846;6.614;2022-08-26T05:06:17;20.50;99.90
57088;DHT22;42965;52.846;6.614;2022-08-26T05:08:45;20.60;99.90
57088;DHT22;42965;52.846;6.614;2022-08-26T05:11:11;20.60;99.90
57088;DHT22;42965;52.846;6.614;2022-08-26T05:13:38;20.60;99.90
57088;DHT22;42965;52.846;6.614;2022-08-26T05:16:08;20.70;99.90
57088;DHT22;42965;52.846;6.614;2022-08-26T05:18:35;20.70;99.90
57088;DHT22;42965;52.846;6.614;2022-08-26T05:21:03;20.70;99.90
57088;DHT22;42965;52.846;6.614;2022-08-26T05:23:29;20.70;99.90
57088;DHT22;42965;52.846;6.614;2022-08-26T05:25:58;20.70;99.90
57088;DHT22;42965;52.846;6.614;2022-08-26T05:28:26;20.80;99.90
57088;DHT22;42965;52.846;6.614;2022-08-26T05:30:53;20.80;99.90
57088;DHT22;42965;52.846;6.614;2022-08-26T05:33:21;20.70;99.90
57088;DHT22;42965;52.846;6.614;2022-08-26T05:35:47;20.70;99.90
57088;DHT22;42965;52.846;6.614;2022-08-26T05:38:18;20.70;99.90
57088;DHT22;42965;52.846;6.614;2022-08-26T05:40:47;20.70;99.90
57088;DHT22;42965;52.846;6.614;2022-08-26T05:43:15;20.70;99.90
57088;DHT22;42965;52.846;6.614;2022-08-26T05:45:45;20.70;99.90
57088;DHT22;42965;52.846;6.614;2022-08-26T05:48:13;20.80;99.90
57088;DHT22;42965;52.846;6.614;2022-08-26T05:50:43;20.80;99.90
57088;DHT22;42965;52.846;6.614;2022-08-26T05:53:11;20.80;99.90
57088;DHT22;42965;52.846;6.614;2022-08-26T05:55:43;20.80;99.90
57088;DHT22;42965;52.846;6.614;2022-08-26T05:58:10;20.80;99.90
57088;DHT22;42965;52.846;6.614;2022-08-26T06:00:37;20.80;99.90
57088;DHT22;42965;52.846;6.614;2022-08-26T06:03:04;20.80;99.90
57088;DHT22;42965;52.846;6.614;2022-08-26T06:05:31;20.90;99.90
57088;DHT22;42965;52.846;6.614;2022-08-26T06:07:57;20.90;99.90
57088;DHT22;42965;52.846;6.614;2022-08-26T06:11:00;20.90;99.90
57088;DHT22;42965;52.846;6.614;2022-08-26T06:13:28;21.00;99.90
57088;DHT22;42965;52.846;6.614;2022-08-26T06:15:55;21.00;99.90
57088;DHT22;42965;52.846;6.614;2022-08-26T06:18:25;21.00;99.90
57088;DHT22;42965;52.846;6.614;2022-08-26T06:20:55;21.10;99.90
57088;DHT22;42965;52.846;6.614;2022-08-26T06:23:21;21.10;99.90
57088;DHT22;42965;52.846;6.614;2022-08-26T06:26:09;21.10;99.90
57088;DHT22;42965;52.846;6.614;2022-08-26T06:28:36;21.20;99.90
57088;DHT22;42965;52.846;6.614;2022-08-26T06:31:02;21.30;99.90
57088;DHT22;42965;52.846;6.614;2022-08-26T06:33:30;21.30;99.90
57088;DHT22;42965;52.846;6.614;2022-08-26T06:35:57;21.50;99.90
57088;DHT22;42965;52.846;6.614;2022-08-26T06:38:24;21.60;99.90
57088;DHT22;42965;52.846;6.614;2022-08-26T06:40:51;21.60;99.90
57088;DHT22;42965;52.846;6.614;2022-08-26T06:43:22;21.70;99.90
57088;DHT22;42965;52.846;6.614;2022-08-26T06:45:50;21.70;99.90
57088;DHT22;42965;52.846;6.614;2022-08-26T06:48:19;21.80;99.90
57088;DHT22;42965;52.846;6.614;2022-08-26T06:50:47;21.90;99.90
57088;DHT22;42965;52.846;6.614;2022-08-26T06:53:13;21.90;99.90
57088;DHT22;42965;52.846;6.614;2022-08-26T06:55:42;21.80;99.90
57088;DHT22;42965;52.846;6.614;2022-08-26T06:58:09;21.90;99.90
57088;DHT22;42965;52.846;6.614;2022-08-26T07:00:37;21.90;99.90
57088;DHT22;42965;52.846;6.614;2022-08-26T07:03:05;22.10;99.90
57088;DHT22;42965;52.846;6.614;2022-08-26T07:05:32;22.10;99.90
57088;DHT22;42965;52.846;6.614;2022-08-26T07:07:59;22.30;99.90
57088;DHT22;42965;52.846;6.614;2022-08-26T07:10:25;22.30;99.90
57088;DHT22;42965;52.846;6.614;2022-08-26T07:12:52;22.30;99.90
57088;DHT22;42965;52.846;6.614;2022-08-26T07:15:19;22.30;99.90
57088;DHT22;42965;52.846;6.614;2022-08-26T07:17:45;22.30;99.90
57088;DHT22;42965;52.846;6.614;2022-08-26T07:20:12;22.30;99.90
57088;DHT22;42965;52.846;6.614;2022-08-26T07:22:38;22.30;99.90
57088;DHT22;42965;52.846;6.614;2022-08-26T07:25:06;22.10;99.90
57088;DHT22;42965;52.846;6.614;2022-08-26T07:27:34;22.00;99.90
57088;DHT22;42965;52.846;6.614;2022-08-26T07:30:03;22.00;99.90
57088;DHT22;42965;52.846;6.614;2022-08-26T07:32:29;21.90;99.90
57088;DHT22;42965;52.846;6.614;2022-08-26T07:34:55;21.90;99.90
57088;DHT22;42965;52.846;6.614;2022-08-26T07:37:22;22.00;99.90
57088;DHT22;42965;52.846;6.614;2022-08-26T07:39:49;21.90;99.90
57088;DHT22;42965;52.846;6.614;2022-08-26T07:42:17;21.90;99.90
57088;DHT22;42965;52.846;6.614;2022-08-26T07:44:43;22.00;99.90
57088;DHT22;42965;52.846;6.614;2022-08-26T07:47:11;22.00;99.90
57088;DHT22;42965;52.846;6.614;2022-08-26T07:49:40;22.00;99.90
57088;DHT22;42965;52.846;6.614;2022-08-26T07:52:07;21.90;99.90
57088;DHT22;42965;52.846;6.614;2022-08-26T07:54:34;21.80;99.90
57088;DHT22;42965;52.846;6.614;2022-08-26T07:57:03;21.70;99.90
57088;DHT22;42965;52.846;6.614;2022-08-26T07:59:30;21.70;99.90
57088;DHT22;42965;52.846;6.614;2022-08-26T08:01:56;21.70;99.90
57088;DHT22;42965;52.846;6.614;2022-08-26T08:04:24;21.80;99.90
57088;DHT22;42965;52.846;6.614;2022-08-26T08:06:51;21.70;99.90
57088;DHT22;42965;52.846;6.614;2022-08-26T08:09:18;21.70;99.90
57088;DHT22;42965;52.846;6.614;2022-08-26T08:11:45;21.70;99.90
57088;DHT22;42965;52.846;6.614;2022-08-26T08:14:12;21.60;99.90
57088;DHT22;42965;52.846;6.614;2022-08-26T08:16:38;21.60;99.90
57088;DHT22;42965;52.846;6.614;2022-08-26T08:19:05;21.60;99.90
57088;DHT22;42965;52.846;6.614;2022-08-26T08:21:31;21.70;99.90
57088;DHT22;42965;52.846;6.614;2022-08-26T08:24:00;21.70;99.90
57088;DHT22;42965;52.846;6.614;2022-08-26T08:26:27;21.70;99.90
57088;DHT22;42965;52.846;6.614;2022-08-26T08:28:55;21.80;99.90
57088;DHT22;42965;52.846;6.614;2022-08-26T08:31:24;21.80;99.90
57088;DHT22;42965;52.846;6.614;2022-08-26T08:33:51;21.80;99.90
57088;DHT22;42965;52.846;6.614;2022-08-26T08:36:18;21.90;99.90
57088;DHT22;42965;52.846;6.614;2022-08-26T08:38:47;21.90;99.90
57088;DHT22;42965;52.846;6.614;2022-08-26T08:44:09;21.90;99.90
57088;DHT22;42965;52.846;6.614;2022-08-26T08:46:35;21.90;99.90
57088;DHT22;42965;52.846;6.614;2022-08-26T08:49:02;21.70;99.90
57088;DHT22;42965;52.846;6.614;2022-08-26T08:51:59;21.70;99.90
57088;DHT22;42965;52.846;6.614;2022-08-26T08:54:27;21.80;99.90
57088;DHT22;42965;52.846;6.614;2022-08-26T08:57:03;21.70;99.90
57088;DHT22;42965;52.846;6.614;2022-08-26T08:59:35;21.70;99.90
57088;DHT22;42965;52.846;6.614;2022-08-26T09:02:17;21.80;99.90
57088;DHT22;42965;52.846;6.614;2022-08-26T09:05:12;21.90;99.90
57088;DHT22;42965;52.846;6.614;2022-08-26T09:08:04;22.00;99.90
57088;DHT22;42965;52.846;6.614;2022-08-26T09:13:15;22.10;99.90
57088;DHT22;42965;52.846;6.614;2022-08-26T09:15:47;22.00;99.90
57088;DHT22;42965;52.846;6.614;2022-08-26T09:18:50;22.00;99.90
57088;DHT22;42965;52.846;6.614;2022-08-26T09:21:22;22.10;99.90
57088;DHT22;42965;52.846;6.614;2022-08-26T09:23:50;22.30;99.90
57088;DHT22;42965;52.846;6.614;2022-08-26T09:26:44;22.30;99.90
57088;DHT22;42965;52.846;6.614;2022-08-26T09:29:26;22.30;99.90
57088;DHT22;42965;52.846;6.614;2022-08-26T09:32:18;22.30;99.90
57088;DHT22;42965;52.846;6.614;2022-08-26T09:35:01;22.30;99.90
57088;DHT22;42965;52.846;6.614;2022-08-26T09:40:22;22.40;99.90
57088;DHT22;42965;52.846;6.614;2022-08-26T09:45:40;22.50;99.90
57088;DHT22;42965;52.846;6.614;2022-08-26T09:48:07;22.40;99.90
57088;DHT22;42965;52.846;6.614;2022-08-26T09:50:50;22.40;99.90
57088;DHT22;42965;52.846;6.614;2022-08-26T09:55:51;22.50;99.90
57088;DHT22;42965;52.846;6.614;2022-08-26T09:58:40;22.40;99.90
57088;DHT22;42965;52.846;6.614;2022-08-26T10:01:14;22.40;99.90
57088;DHT22;42965;52.846;6.614;2022-08-26T10:03:41;22.50;99.90
57088;DHT22;42965;52.846;6.614;2022-08-26T10:08:46;22.60;99.90
57088;DHT22;42965;52.846;6.614;2022-08-26T10:13:48;22.50;99.90
57088;DHT22;42965;52.846;6.614;2022-08-26T10:16:22;22.50;99.90
57088;DHT22;42965;52.846;6.614;2022-08-26T10:19:12;22.50;99.90
57088;DHT22;42965;52.846;6.614;2022-08-26T10:22:00;22.70;99.90
57088;DHT22;42965;52.846;6.614;2022-08-26T10:24:46;22.90;99.90
57088;DHT22;42965;52.846;6.614;2022-08-26T10:30:13;23.40;99.90
57088;DHT22;42965;52.846;6.614;2022-08-26T10:32:43;23.60;99.90
57088;DHT22;42965;52.846;6.614;2022-08-26T10:35:13;23.80;99.90
57088;DHT22;42965;52.846;6.614;2022-08-26T10:37:46;23.70;99.90
57088;DHT22;42965;52.846;6.614;2022-08-26T10:40:24;23.70;99.90
57088;DHT22;42965;52.846;6.614;2022-08-26T10:43:07;23.50;99.90
57088;DHT22;42965;52.846;6.614;2022-08-26T10:45:52;23.50;99.90
57088;DHT22;42965;52.846;6.614;2022-08-26T10:48:55;23.50;99.90
57088;DHT22;42965;52.846;6.614;2022-08-26T10:51:33;23.20;99.90
57088;DHT22;42965;52.846;6.614;2022-08-26T10:54:15;23.30;99.90
57088;DHT22;42965;52.846;6.614;2022-08-26T11:05:02;23.10;99.90
57088;DHT22;42965;52.846;6.614;2022-08-26T11:10:57;23.20;99.90
57088;DHT22;42965;52.846;6.614;2022-08-26T11:16:41;23.10;99.90
57088;DHT22;42965;52.846;6.614;2022-08-26T11:19:10;23.10;99.90
57088;DHT22;42965;52.846;6.614;2022-08-26T11:21:50;23.00;99.90
57088;DHT22;42965;52.846;6.614;2022-08-26T11:40:14;22.90;99.90
57088;DHT22;42965;52.846;6.614;2022-08-26T11:42:50;23.10;99.90
57088;DHT22;42965;52.846;6.614;2022-08-26T11:45:37;23.10;99.90
57088;DHT22;42965;52.846;6.614;2022-08-26T11:48:30;23.00;99.90
57088;DHT22;42965;52.846;6.614;2022-08-26T11:51:10;22.70;99.90
57088;DHT22;42965;52.846;6.614;2022-08-26T11:53:40;22.60;99.90
57088;DHT22;42965;52.846;6.614;2022-08-26T11:56:33;22.30;99.90
57088;DHT22;42965;52.846;6.614;2022-08-26T11:59:02;22.10;99.90
57088;DHT22;42965;52.846;6.614;2022-08-26T12:01:37;22.10;99.90
57088;DHT22;42965;52.846;6.614;2022-08-26T12:04:18;22.10;99.90
57088;DHT22;42965;52.846;6.614;2022-08-26T12:06:49;22.10;99.90
57088;DHT22;42965;52.846;6.614;2022-08-26T12:09:24;22.00;99.90
57088;DHT22;42965;52.846;6.614;2022-08-26T12:11:51;21.80;99.90
57088;DHT22;42965;52.846;6.614;2022-08-26T12:14:22;21.70;99.90
57088;DHT22;42965;52.846;6.614;2022-08-26T12:16:49;21.60;99.90
57088;DHT22;42965;52.846;6.614;2022-08-26T12:19:30;21.70;99.90
57088;DHT22;42965;52.846;6.614;2022-08-26T12:22:14;21.60;99.90
57088;DHT22;42965;52.846;6.614;2022-08-26T12:24:53;21.70;99.90
57088;DHT22;42965;52.846;6.614;2022-08-26T12:27:23;21.80;99.90
57088;DHT22;42965;52.846;6.614;2022-08-26T12:30:23;22.00;99.90
57088;DHT22;42965;52.846;6.614;2022-08-26T12:32:52;22.20;99.90
57088;DHT22;42965;52.846;6.614;2022-08-26T12:35:20;22.30;99.90
57088;DHT22;42965;52.846;6.614;2022-08-26T12:37:51;22.50;99.90
57088;DHT22;42965;52.846;6.614;2022-08-26T12:42:52;22.50;99.90
57088;DHT22;42965;52.846;6.614;2022-08-26T12:45:34;22.30;99.90
57088;DHT22;42965;52.846;6.614;2022-08-26T12:48:19;22.40;99.90
57088;DHT22;42965;52.846;6.614;2022-08-26T12:50:48;22.40;99.90
57088;DHT22;42965;52.846;6.614;2022-08-26T12:55:47;22.50;99.90
57088;DHT22;42965;52.846;6.614;2022-08-26T13:00:42;22.30;99.90
57088;DHT22;42965;52.846;6.614;2022-08-26T13:06:16;22.40;99.90
57088;DHT22;42965;52.846;6.614;2022-08-26T13:08:52;22.20;99.90
57088;DHT22;42965;52.846;6.614;2022-08-26T13:11:26;22.20;99.90
57088;DHT22;42965;52.846;6.614;2022-08-26T13:13:59;22.20;99.90
57088;DHT22;42965;52.846;6.614;2022-08-26T13:16:25;22.10;99.90
57088;DHT22;42965;52.846;6.614;2022-08-26T13:18:56;21.90;99.90
57088;DHT22;42965;52.846;6.614;2022-08-26T13:21:31;21.70;99.90
57088;DHT22;42965;52.846;6.614;2022-08-26T13:24:08;21.50;99.90
57088;DHT22;42965;52.846;6.614;2022-08-26T13:26:35;21.50;99.90
57088;DHT22;42965;52.846;6.614;2022-08-26T13:29:01;21.30;99.90
57088;DHT22;42965;52.846;6.614;2022-08-26T13:31:29;21.50;99.90
57088;DHT22;42965;52.846;6.614;2022-08-26T13:33:56;21.40;99.90
57088;DHT22;42965;52.846;6.614;2022-08-26T13:36:22;21.60;99.90
57088;DHT22;42965;52.846;6.614;2022-08-26T13:38:48;21.70;99.90
57088;DHT22;42965;52.846;6.614;2022-08-26T13:41:15;21.70;99.90
57088;DHT22;42965;52.846;6.614;2022-08-26T13:43:41;21.90;99.90
57088;DHT22;42965;52.846;6.614;2022-08-26T13:46:07;22.00;99.90
57088;DHT22;42965;52.846;6.614;2022-08-26T13:48:34;22.10;99.90
57088;DHT22;42965;52.846;6.614;2022-08-26T13:51:00;22.10;99.90
57088;DHT22;42965;52.846;6.614;2022-08-26T13:53:28;22.30;99.90
57088;DHT22;42965;52.846;6.614;2022-08-26T13:55:57;22.40;99.90
57088;DHT22;42965;52.846;6.614;2022-08-26T13:58:24;22.30;99.90
57088;DHT22;42965;52.846;6.614;2022-08-26T14:00:51;22.30;99.90
57088;DHT22;42965;52.846;6.614;2022-08-26T14:03:17;22.20;99.90
57088;DHT22;42965;52.846;6.614;2022-08-26T14:05:43;22.20;99.90
57088;DHT22;42965;52.846;6.614;2022-08-26T14:08:10;21.90;99.90
57088;DHT22;42965;52.846;6.614;2022-08-26T14:10:36;21.80;99.90
57088;DHT22;42965;52.846;6.614;2022-08-26T14:13:03;21.70;99.90
57088;DHT22;42965;52.846;6.614;2022-08-26T14:15:34;21.70;99.90
57088;DHT22;42965;52.846;6.614;2022-08-26T14:18:06;21.60;99.90
57088;DHT22;42965;52.846;6.614;2022-08-26T14:20:34;21.60;99.90
57088;DHT22;42965;52.846;6.614;2022-08-26T14:23:01;21.50;99.90
57088;DHT22;42965;52.846;6.614;2022-08-26T14:25:28;21.50;99.90
57088;DHT22;42965;52.846;6.614;2022-08-26T14:27:55;21.70;99.90
57088;DHT22;42965;52.846;6.614;2022-08-26T14:30:22;21.70;99.90
57088;DHT22;42965;52.846;6.614;2022-08-26T14:32:50;21.80;99.90
57088;DHT22;42965;52.846;6.614;2022-08-26T14:35:21;21.80;99.90
57088;DHT22;42965;52.846;6.614;2022-08-26T14:37:48;21.90;99.90
57088;DHT22;42965;52.846;6.614;2022-08-26T14:40:14;21.80;99.90
57088;DHT22;42965;52.846;6.614;2022-08-26T14:42:48;21.80;99.90
57088;DHT22;42965;52.846;6.614;2022-08-26T14:45:18;21.80;99.90
57088;DHT22;42965;52.846;6.614;2022-08-26T14:47:45;21.70;99.90
57088;DHT22;42965;52.846;6.614;2022-08-26T14:50:24;21.60;99.90
57088;DHT22;42965;52.846;6.614;2022-08-26T14:52:51;21.60;99.90
57088;DHT22;42965;52.846;6.614;2022-08-26T14:55:38;21.50;99.90
57088;DHT22;42965;52.846;6.614;2022-08-26T14:58:05;21.40;99.90
57088;DHT22;42965;52.846;6.614;2022-08-26T15:00:32;21.20;99.90
57088;DHT22;42965;52.846;6.614;2022-08-26T15:02:58;21.20;99.90
57088;DHT22;42965;52.846;6.614;2022-08-26T15:05:24;21.10;99.90
57088;DHT22;42965;52.846;6.614;2022-08-26T15:07:50;21.20;99.90
57088;DHT22;42965;52.846;6.614;2022-08-26T15:10:17;21.00;99.90
57088;DHT22;42965;52.846;6.614;2022-08-26T15:12:44;20.90;99.90
57088;DHT22;42965;52.846;6.614;2022-08-26T15:15:12;21.00;99.90
57088;DHT22;42965;52.846;6.614;2022-08-26T15:17:38;20.90;99.90
57088;DHT22;42965;52.846;6.614;2022-08-26T15:20:06;20.90;99.90
57088;DHT22;42965;52.846;6.614;2022-08-26T15:22:35;20.90;99.90
57088;DHT22;42965;52.846;6.614;2022-08-26T15:25:01;20.80;99.90
57088;DHT22;42965;52.846;6.614;2022-08-26T15:27:27;20.80;99.90
57088;DHT22;42965;52.846;6.614;2022-08-26T15:29:53;20.80;99.90
57088;DHT22;42965;52.846;6.614;2022-08-26T15:32:19;20.80;99.90
57088;DHT22;42965;52.846;6.614;2022-08-26T15:34:46;20.60;99.90
57088;DHT22;42965;52.846;6.614;2022-08-26T15:37:12;20.60;99.90
57088;DHT22;42965;52.846;6.614;2022-08-26T15:39:38;20.60;99.90
57088;DHT22;42965;52.846;6.614;2022-08-26T15:42:04;20.50;99.90
57088;DHT22;42965;52.846;6.614;2022-08-26T15:44:30;20.50;99.90
57088;DHT22;42965;52.846;6.614;2022-08-26T15:46:58;20.40;99.90
57088;DHT22;42965;52.846;6.614;2022-08-26T15:49:25;20.40;99.90
57088;DHT22;42965;52.846;6.614;2022-08-26T15:51:52;20.30;99.90
57088;DHT22;42965;52.846;6.614;2022-08-26T15:54:20;20.30;99.90
57088;DHT22;42965;52.846;6.614;2022-08-26T15:56:47;20.30;99.90
57088;DHT22;42965;52.846;6.614;2022-08-26T15:59:17;20.30;99.90
57088;DHT22;42965;52.846;6.614;2022-08-26T16:01:44;20.30;99.90
57088;DHT22;42965;52.846;6.614;2022-08-26T16:04:10;20.30;99.90
57088;DHT22;42965;52.846;6.614;2022-08-26T16:06:39;20.30;99.90
57088;DHT22;42965;52.846;6.614;2022-08-26T16:09:06;20.30;99.90
57088;DHT22;42965;52.846;6.614;2022-08-26T16:11:34;20.30;99.90
57088;DHT22;42965;52.846;6.614;2022-08-26T16:14:01;20.40;99.90
57088;DHT22;42965;52.846;6.614;2022-08-26T16:16:27;20.50;99.90
57088;DHT22;42965;52.846;6.614;2022-08-26T16:18:53;20.50;99.90
57088;DHT22;42965;52.846;6.614;2022-08-26T16:21:22;20.50;99.90
57088;DHT22;42965;52.846;6.614;2022-08-26T16:23:50;20.60;99.90
57088;DHT22;42965;52.846;6.614;2022-08-26T16:26:19;20.60;99.90
57088;DHT22;42965;52.846;6.614;2022-08-26T16:28:46;20.70;99.90
57088;DHT22;42965;52.846;6.614;2022-08-26T16:31:13;20.70;99.90
57088;DHT22;42965;52.846;6.614;2022-08-26T16:33:40;20.80;99.90
57088;DHT22;42965;52.846;6.614;2022-08-26T16:36:08;20.80;99.90
57088;DHT22;42965;52.846;6.614;2022-08-26T16:38:35;20.70;99.90
57088;DHT22;42965;52.846;6.614;2022-08-26T16:41:02;20.60;99.90
57088;DHT22;42965;52.846;6.614;2022-08-26T16:43:29;20.60;99.90
57088;DHT22;42965;52.846;6.614;2022-08-26T16:45:55;20.60;99.90
57088;DHT22;42965;52.846;6.614;2022-08-26T16:48:22;20.70;99.90
57088;DHT22;42965;52.846;6.614;2022-08-26T16:50:49;20.60;99.90
57088;DHT22;42965;52.846;6.614;2022-08-26T16:53:16;20.50;99.90
57088;DHT22;42965;52.846;6.614;2022-08-26T16:55:44;20.50;99.90
57088;DHT22;42965;52.846;6.614;2022-08-26T16:58:10;20.40;99.90